Time;durP1;ratioP1;P1;durP2;ratioP2;P2;SDS_P1;SDS_P2;PMS_P1;PMS_P2;Temp;Humidity;BMP_temperature;BMP_pressure;BME280_temperature;BME280_humidity;BME280_pressure;Samples;Min_cycle;Max_cycle;Signal;HPM_P1;HPM_P2
2022/08/11 00:01:08;;;;;;;6.30;3.37;;;15.10;24.80;;;;;;5058380;28;47512;-66
2022/08/11 00:03:34;;;;;;;5.67;2.93;;;15.00;24.90;;;;;;5059749;28;46511;-66
2022/08/11 00:06:01;;;;;;;7.27;3.30;;;15.10;41.60;;;;;;5056510;28;46512;-65
2022/08/11 00:08:29;;;;;;;9.43;3.43;;;15.10;25.10;;;;;;5057868;28;46394;-67
2022/08/11 00:11:01;;;;;;;10.33;3.27;;;15.00;25.40;;;;;;5061509;28;47104;-67
2022/08/11 00:13:36;;;;;;;4.30;2.90;;;15.00;25.20;;;;;;5059670;28;46459;-67
2022/08/11 00:16:03;;;;;;;11.87;4.83;;;15.00;25.60;;;;;;5059536;28;46449;-66
2022/08/11 00:18:40;;;;;;;6.93;2.90;;;15.00;39.20;;;;;;5057688;28;46412;-65
2022/08/11 00:21:06;;;;;;;8.40;3.80;;;15.00;37.90;;;;;;5058237;28;47350;-67
2022/08/11 00:23:32;;;;;;;10.70;3.60;;;;;;;;;;5060229;28;46515;-66
2022/08/11 00:25:58;;;;;;;6.20;3.23;;;;;;;;;;5058084;28;46370;-66
2022/08/11 00:28:31;;;;;;;7.23;3.07;;;15.30;37.80;;;;;;5059289;28;46942;-67
2022/08/11 00:31:00;;;;;;;6.07;3.33;;;15.10;26.00;;;;;;5059145;28;46577;-67
2022/08/11 00:33:39;;;;;;;6.30;3.30;;;15.10;26.10;;;;;;5060778;28;46422;-67
2022/08/11 00:36:07;;;;;;;7.20;3.13;;;15.00;26.00;;;;;;5059989;28;46381;-67
2022/08/11 00:38:36;;;;;;;8.60;3.83;;;15.00;26.20;;;;;;5069953;28;46438;-66
2022/08/11 00:41:28;;;;;;;5.33;3.50;;;14.80;43.50;;;;;;5063289;28;46956;-67
2022/08/11 00:44:48;;;;;;;9.93;3.13;;;15.00;26.20;;;;;;5063164;28;46160;-66
2022/08/11 00:47:32;;;;;;;16.80;3.57;;;14.90;26.60;;;;;;4981478;28;46341;-67
2022/08/11 00:50:25;;;;;;;10.30;3.60;;;14.90;29.20;;;;;;5056873;28;46678;-67
2022/08/11 00:53:16;;;;;;;6.93;3.77;;;14.90;26.50;;;;;;5062012;28;47280;-67
2022/08/11 00:55:54;;;;;;;8.70;3.50;;;14.90;26.50;;;;;;5061929;28;46409;-66
2022/08/11 00:58:59;;;;;;;6.20;3.40;;;14.80;26.50;;;;;;5059895;28;46457;-67
2022/08/11 01:01:37;;;;;;;8.33;3.33;;;15.10;27.10;;;;;;5047418;28;46609;-67
2022/08/11 01:04:21;;;;;;;9.73;3.70;;;14.90;27.50;;;;;;5062341;28;46709;-67
2022/08/11 01:07:13;;;;;;;6.83;3.70;;;15.00;26.60;;;;;;5061990;28;46868;-67
2022/08/11 01:09:50;;;;;;;10.83;3.30;;;15.00;26.70;;;;;;5063123;28;46382;-67
2022/08/11 01:12:40;;;;;;;6.40;3.50;;;14.90;27.10;;;;;;5060395;28;45933;-67
2022/08/11 01:15:24;;;;;;;6.00;3.20;;;15.00;26.90;;;;;;5063008;28;47216;-67
2022/08/11 01:18:14;;;;;;;5.33;3.10;;;15.00;26.90;;;;;;5061888;28;46379;-67
2022/08/11 01:20:57;;;;;;;6.50;3.23;;;14.90;37.20;;;;;;5061209;28;45889;-67
2022/08/11 01:24:01;;;;;;;6.00;4.20;;;15.00;27.10;;;;;;5063338;28;46346;-66
2022/08/11 01:27:01;;;;;;;4.60;3.00;;;14.90;27.20;;;;;;5060997;28;46479;-67
2022/08/11 01:30:04;;;;;;;6.00;3.30;;;14.60;26.90;;;;;;5061452;28;46398;-67
2022/08/11 01:32:51;;;;;;;5.13;3.40;;;14.90;41.70;;;;;;5062269;28;46358;-66
2022/08/11 01:35:40;;;;;;;6.00;3.13;;;14.90;27.30;;;;;;5063834;28;46444;-68
2022/08/11 01:38:20;;;;;;;9.63;3.30;;;15.00;32.90;;;;;;5058704;28;46442;-66
2022/08/11 01:40:46;;;;;;;9.17;3.40;;;;;;;;;;5059015;28;46288;-66
2022/08/11 01:44:51;;;;;;;6.60;3.60;;;14.70;27.50;;;;;;5060987;28;46401;-67
2022/08/11 01:46:57;;;;;;;7.07;3.43;;;14.70;27.70;;;;;;5054368;28;46642;-66
2022/08/11 01:50:02;;;;;;;8.47;3.90;;;14.60;44.80;;;;;;5059599;28;46810;-67
2022/08/11 01:52:45;;;;;;;8.10;4.07;;;14.60;28.00;;;;;;5050787;28;47120;-66
2022/08/11 01:55:11;;;;;;;9.93;3.60;;;;;;;;;;5062116;28;46457;-68
2022/08/11 01:57:59;;;;;;;5.67;3.43;;;14.50;28.40;;;;;;5059285;28;46362;-67
2022/08/11 02:00:29;;;;;;;12.23;4.10;;;14.80;29.40;;;;;;5062756;28;46584;-67
2022/08/11 02:03:23;;;;;;;11.47;3.90;;;14.50;28.50;;;;;;5059692;28;46373;-67
2022/08/11 02:06:53;;;;;;;9.60;3.83;;;14.50;28.50;;;;;;5056554;28;46413;-66
2022/08/11 02:09:33;;;;;;;9.53;4.17;;;14.20;46.40;;;;;;5061363;28;45919;-66
2022/08/11 02:12:09;;;;;;;7.37;3.97;;;14.40;28.50;;;;;;5042945;28;47101;-67
2022/08/11 02:14:45;;;;;;;5.63;3.43;;;14.30;45.20;;;;;;5061823;28;46302;-67
2022/08/11 02:17:41;;;;;;;5.20;3.70;;;14.30;28.40;;;;;;5060650;28;46332;-67
2022/08/11 02:23:38;;;;;;;7.20;3.40;;;14.20;33.50;;;;;;5058394;28;46802;-67
2022/08/11 02:26:21;;;;;;;10.47;4.00;;;14.20;46.00;;;;;;5054310;28;46026;-67
2022/08/11 02:28:59;;;;;;;5.83;3.60;;;14.20;28.30;;;;;;5058234;28;46398;-67
2022/08/11 02:34:31;;;;;;;8.50;3.77;;;14.00;38.90;;;;;;5062810;28;46916;-67
2022/08/11 02:37:33;;;;;;;5.60;3.90;;;14.10;28.90;;;;;;5060178;28;46427;-67
2022/08/11 02:39:59;;;;;;;10.40;4.07;;;14.40;46.70;;;;;;5060891;28;46542;-66
2022/08/11 02:42:45;;;;;;;7.00;3.83;;;14.10;46.40;;;;;;5062251;28;46318;-66
2022/08/11 02:45:11;;;;;;;5.93;3.70;;;;;;;;;;5059608;28;46447;-66
2022/08/11 02:51:31;;;;;;;8.40;4.00;;;14.00;29.40;;;;;;5060254;28;45849;-65
2022/08/11 02:54:09;;;;;;;7.53;4.17;;;13.90;29.60;;;;;;5060121;28;45990;-67
2022/08/11 02:56:58;;;;;;;6.73;3.83;;;13.80;29.80;;;;;;5060562;28;46245;-66
2022/08/11 02:59:49;;;;;;;6.07;3.30;;;13.80;29.90;;;;;;5061337;28;46390;-67
2022/08/11 03:02:44;;;;;;;6.97;3.80;;;13.70;29.90;;;;;;5062468;28;46435;-67
2022/08/11 03:05:15;;;;;;;6.40;4.13;;;13.70;44.80;;;;;;5055687;28;46462;-67
2022/08/11 03:08:09;;;;;;;8.80;4.60;;;13.60;30.00;;;;;;5059848;28;48111;-67
2022/08/11 03:16:43;;;;;;;7.23;4.00;;;13.50;45.10;;;;;;5062585;28;46367;-67
2022/08/11 03:16:49;;;;;;;11.40;4.50;;;13.40;30.60;;;;;;5060640;28;46117;-67
2022/08/11 03:19:29;;;;;;;8.20;4.10;;;13.40;30.80;;;;;;5058542;28;48077;-69
2022/08/11 03:22:37;;;;;;;6.47;4.37;;;13.40;30.80;;;;;;5062380;28;46538;-67
2022/08/11 03:25:43;;;;;;;6.47;4.50;;;13.40;30.90;;;;;;5069595;28;46293;-67
2022/08/11 03:28:41;;;;;;;8.30;4.70;;;13.20;30.80;;;;;;5059331;28;46378;-66
2022/08/11 03:31:41;;;;;;;8.87;4.67;;;13.30;30.90;;;;;;5059735;28;46588;-68
2022/08/11 03:34:12;;;;;;;7.90;4.70;;;13.00;32.10;;;;;;5027815;28;46687;-67
2022/08/11 03:36:45;;;;;;;7.80;4.40;;;;;;;;;;5058637;28;46616;-67
2022/08/11 03:39:36;;;;;;;6.30;4.03;;;13.00;40.90;;;;;;5058305;28;46357;-68
2022/08/11 03:42:23;;;;;;;6.67;4.23;;;13.20;31.40;;;;;;5059831;28;46632;-67
2022/08/11 03:45:01;;;;;;;10.00;5.43;;;13.40;46.30;;;;;;5058455;28;46495;-67
2022/08/11 03:47:52;;;;;;;10.83;5.17;;;13.20;47.30;;;;;;5059054;28;46098;-65
2022/08/11 03:50:38;;;;;;;7.73;4.43;;;13.20;47.80;;;;;;5061637;28;46404;-67
2022/08/11 03:53:16;;;;;;;14.13;4.00;;;13.00;44.90;;;;;;5061602;28;46349;-66
2022/08/11 03:56:10;;;;;;;6.60;4.43;;;13.10;32.20;;;;;;5058379;28;46388;-67
2022/08/11 03:59:16;;;;;;;8.50;4.30;;;12.80;43.00;;;;;;5051338;28;46319;-67
2022/08/11 04:02:07;;;;;;;5.40;3.50;;;12.80;32.50;;;;;;5060204;28;46371;-67
2022/08/11 04:04:34;;;;;;;6.43;4.03;;;;;;;;;;5058061;28;47173;-67
2022/08/11 04:07:34;;;;;;;7.37;4.50;;;12.60;33.00;;;;;;5059252;28;46237;-64
2022/08/11 04:10:09;;;;;;;9.90;4.50;;;12.40;33.30;;;;;;5059627;28;46930;-67
2022/08/11 04:13:05;;;;;;;5.77;4.30;;;12.30;33.60;;;;;;5060293;28;46478;-67
2022/08/11 04:16:18;;;;;;;8.93;4.80;;;12.20;45.10;;;;;;5060466;28;46995;-67
2022/08/11 04:19:12;;;;;;;7.43;4.40;;;12.20;33.60;;;;;;5057608;28;46578;-67
2022/08/11 04:22:01;;;;;;;7.23;4.80;;;12.40;39.10;;;;;;5063572;28;46339;-67
2022/08/11 04:24:47;;;;;;;6.67;5.40;;;12.20;42.30;;;;;;5022016;28;45908;-66
2022/08/11 04:27:44;;;;;;;7.90;4.33;;;12.20;33.60;;;;;;5060549;28;47399;-67
2022/08/11 04:30:40;;;;;;;8.83;4.40;;;12.20;33.60;;;;;;5062712;28;46460;-68
2022/08/11 04:33:48;;;;;;;8.20;4.53;;;12.10;33.60;;;;;;5061520;28;46004;-65
2022/08/11 04:37:30;;;;;;;7.17;4.50;;;12.10;33.80;;;;;;5061553;28;46448;-66
2022/08/11 04:39:25;;;;;;;10.20;4.77;;;12.00;33.70;;;;;;5062579;28;46069;-67
2022/08/11 04:45:34;;;;;;;18.20;5.00;;;12.30;42.70;;;;;;5060348;28;46645;-66
2022/08/11 05:08:02;;;;;;;10.10;4.17;;;15.00;30.70;;;;;;5024800;28;46498;-68
2022/08/11 05:10:56;;;;;;;10.63;4.10;;;16.30;29.70;;;;;;5059491;28;46620;-66
2022/08/11 05:37:12;;;;;;;14.23;3.83;;;23.60;21.40;;;;;;5061007;28;46345;-67
2022/08/11 05:56:46;;;;;;;8.00;4.00;;;25.20;15.00;;;;;;5062065;28;46429;-68
2022/08/11 05:59:15;;;;;;;9.40;3.47;;;25.50;14.20;;;;;;5062478;28;46357;-67
2022/08/11 06:01:42;;;;;;;8.97;3.57;;;25.50;14.50;;;;;;5058311;28;47109;-68
2022/08/11 06:04:22;;;;;;;6.82;3.70;;;25.40;14.30;;;;;;5059106;28;46680;-68
2022/08/11 06:06:53;;;;;;;5.57;3.50;;;25.50;12.00;;;;;;5058530;28;46474;-66
2022/08/11 06:09:25;;;;;;;9.77;3.97;;;25.30;13.90;;;;;;5059964;28;46484;-67
2022/08/11 06:11:51;;;;;;;5.53;3.33;;;25.10;12.90;;;;;;5060538;28;46354;-66
2022/08/11 06:14:19;;;;;;;5.93;3.70;;;25.20;11.50;;;;;;5061387;28;46509;-66
2022/08/11 06:16:48;;;;;;;10.73;3.57;;;25.20;10.70;;;;;;5063936;28;46452;-66
2022/08/11 06:19:15;;;;;;;5.83;3.20;;;25.30;11.20;;;;;;5077243;27;46568;-65
2022/08/11 06:21:46;;;;;;;6.20;3.90;;;25.60;10.40;;;;;;5070166;28;46428;-67
2022/08/11 06:24:13;;;;;;;18.27;3.70;;;25.70;9.80;;;;;;5072358;27;45892;-67
2022/08/11 06:26:48;;;;;;;10.40;3.87;;;25.60;10.30;;;;;;5070244;28;46942;-67
2022/08/11 06:29:17;;;;;;;5.07;3.60;;;25.90;8.90;;;;;;5069211;28;46492;-67
2022/08/11 06:31:58;;;;;;;10.13;4.13;;;25.30;10.20;;;;;;5070077;28;46506;-67
2022/08/11 06:34:24;;;;;;;7.93;3.20;;;;;;;;;;5069825;27;46045;-66
2022/08/11 06:37:25;;;;;;;8.13;3.83;;;22.90;14.90;;;;;;5070070;28;46397;-68
2022/08/11 06:40:22;;;;;;;5.10;3.23;;;22.40;15.70;;;;;;5026643;28;46511;-68
2022/08/11 06:42:53;;;;;;;8.80;3.97;;;23.10;12.70;;;;;;5048119;28;47216;-67
2022/08/11 06:45:25;;;;;;;10.27;3.73;;;23.80;11.10;;;;;;5068830;28;45914;-65
2022/08/11 06:47:52;;;;;;;7.07;4.00;;;24.00;11.10;;;;;;5067399;28;46415;-66
2022/08/11 06:53:09;;;;;;;6.30;3.83;;;25.40;8.20;;;;;;5066690;28;46756;-66
2022/08/11 07:01:13;;;;;;;7.50;3.13;;;25.60;7.90;;;;;;5065300;28;46409;-67
2022/08/11 07:03:51;;;;;;;6.27;3.60;;;25.60;8.20;;;;;;5068804;28;46377;-69
2022/08/11 07:06:37;;;;;;;8.57;3.53;;;23.10;12.00;;;;;;5067686;28;46531;-67
2022/08/11 07:15:41;;;;;;;5.83;3.53;;;21.10;16.30;;;;;;5065795;28;46848;-68
2022/08/11 07:30:05;;;;;;;14.40;3.73;;;21.10;17.20;;;;;;5067539;28;45943;-68
2022/08/11 07:32:35;;;;;;;7.70;3.70;;;21.20;17.50;;;;;;5068102;28;46028;-69
2022/08/11 07:35:35;;;;;;;7.17;3.67;;;21.40;17.30;;;;;;5066808;28;46409;-67
2022/08/11 07:38:15;;;;;;;12.03;3.60;;;21.40;17.50;;;;;;5064004;28;46699;-67
2022/08/11 07:40:42;;;;;;;10.33;3.80;;;21.40;17.20;;;;;;5068024;28;46328;-67
2022/08/11 07:43:10;;;;;;;6.90;3.57;;;21.40;17.30;;;;;;5067568;28;45786;-67
2022/08/11 07:54:04;;;;;;;7.87;3.33;;;21.60;17.00;;;;;;5068319;28;46368;-69
2022/08/11 07:56:33;;;;;;;15.80;3.00;;;21.70;16.80;;;;;;5065261;28;46546;-74
2022/08/11 08:18:12;;;;;;;12.33;3.90;;;22.10;16.30;;;;;;5067873;28;46477;-67
2022/08/11 08:20:48;;;;;;;10.87;3.60;;;22.30;16.90;;;;;;5066135;28;47101;-66
2022/08/11 08:23:16;;;;;;;10.50;3.73;;;;;;;;;;5067046;28;46311;-68
2022/08/11 08:25:44;;;;;;;10.07;3.63;;;22.40;16.40;;;;;;5067301;28;46494;-68
2022/08/11 08:28:15;;;;;;;14.13;3.73;;;22.50;16.00;;;;;;5067809;28;46435;-68
2022/08/11 08:30:49;;;;;;;8.17;3.80;;;22.60;15.80;;;;;;5067969;28;46425;-66
2022/08/11 08:33:30;;;;;;;7.83;3.40;;;22.60;15.20;;;;;;5067552;28;46333;-72
2022/08/11 08:36:14;;;;;;;7.97;3.73;;;22.60;15.70;;;;;;5066178;28;47018;-70
2022/08/11 08:38:49;;;;;;;9.80;3.00;;;22.70;15.70;;;;;;5065732;28;45952;-67
2022/08/11 08:41:31;;;;;;;10.23;3.77;;;22.70;16.30;;;;;;5066795;28;47118;-68
2022/08/11 08:44:02;;;;;;;6.97;3.40;;;22.70;15.40;;;;;;5067048;27;46456;-70
2022/08/11 08:46:35;;;;;;;8.10;3.80;;;22.80;15.40;;;;;;5068021;28;46341;-67
2022/08/11 08:49:03;;;;;;;10.83;3.27;;;22.90;15.20;;;;;;5064838;28;46359;-67
2022/08/11 08:51:33;;;;;;;5.10;3.60;;;23.00;15.00;;;;;;5066483;28;46408;-68
2022/08/11 08:54:20;;;;;;;6.80;3.37;;;23.10;14.70;;;;;;5067632;28;46410;-70
2022/08/11 08:56:51;;;;;;;7.60;3.50;;;22.90;14.50;;;;;;5066271;28;46732;-69
2022/08/11 08:59:21;;;;;;;8.97;3.53;;;23.10;14.60;;;;;;5067261;28;46473;-67
2022/08/11 09:02:02;;;;;;;16.40;3.27;;;23.20;14.50;;;;;;5061651;28;46938;-68
2022/08/11 09:04:28;;;;;;;12.53;3.57;;;23.20;14.30;;;;;;5067036;28;46424;-66
2022/08/11 09:06:57;;;;;;;7.20;3.20;;;23.30;14.50;;;;;;5062139;28;46468;-66
2022/08/11 09:09:24;;;;;;;5.10;3.00;;;23.40;14.50;;;;;;5062154;28;46659;-68
2022/08/11 09:11:52;;;;;;;7.70;3.03;;;23.40;14.40;;;;;;5062113;28;49077;-69
2022/08/11 09:14:23;;;;;;;6.87;3.77;;;23.20;14.50;;;;;;5062138;28;46420;-69
2022/08/11 09:16:51;;;;;;;9.63;3.80;;;23.30;14.60;;;;;;5061227;28;46420;-66
2022/08/11 09:19:18;;;;;;;7.80;3.23;;;23.30;14.10;;;;;;5059701;28;46738;-68
2022/08/11 09:27:16;;;;;;;5.53;3.37;;;23.30;14.20;;;;;;5057797;28;46622;-70
2022/08/11 09:29:42;;;;;;;5.30;3.53;;;23.20;14.20;;;;;;5061025;28;46409;-69
2022/08/11 09:32:08;;;;;;;9.27;3.43;;;23.30;14.20;;;;;;5061262;28;46310;-67
2022/08/11 09:34:36;;;;;;;16.63;3.47;;;23.60;13.90;;;;;;5060782;28;46428;-68
2022/08/11 09:45:19;;;;;;;9.70;3.07;;;24.00;13.30;;;;;;5061229;28;46509;-67
2022/08/11 09:47:45;;;;;;;5.57;3.47;;;24.00;13.30;;;;;;5061880;28;46593;-68
2022/08/11 09:50:14;;;;;;;5.03;3.00;;;24.00;13.00;;;;;;5059470;28;46426;-69
2022/08/11 09:52:41;;;;;;;7.10;3.10;;;23.90;12.80;;;;;;5061701;28;46341;-69
2022/08/11 09:55:10;;;;;;;6.20;3.10;;;23.90;12.90;;;;;;5050518;28;46442;-68
2022/08/11 10:00:30;;;;;;;7.00;2.67;;;24.10;12.50;;;;;;5060099;28;46560;-69
2022/08/11 10:02:57;;;;;;;8.80;3.03;;;24.10;12.30;;;;;;5061092;28;46417;-67
2022/08/11 10:08:11;;;;;;;8.30;2.90;;;24.50;12.20;;;;;;5062986;28;46344;-70
2022/08/11 10:10:38;;;;;;;7.70;3.07;;;24.40;11.90;;;;;;5059803;28;46523;-67
2022/08/11 10:13:07;;;;;;;7.80;3.23;;;24.50;12.00;;;;;;5057873;28;46417;-67
2022/08/11 10:15:37;;;;;;;7.17;2.40;;;24.50;11.80;;;;;;5062948;28;46402;-67
2022/08/11 10:21:09;;;;;;;9.43;3.10;;;24.50;11.50;;;;;;5060566;28;46455;-67
2022/08/11 10:26:53;;;;;;;5.47;2.60;;;24.60;11.40;;;;;;5059900;28;46366;-70
2022/08/11 10:34:57;;;;;;;8.07;3.23;;;24.80;10.70;;;;;;5060505;28;46401;-68
2022/08/11 10:37:24;;;;;;;7.40;3.07;;;24.70;10.50;;;;;;5059951;28;46428;-69
2022/08/11 10:39:51;;;;;;;13.60;2.80;;;24.80;10.20;;;;;;5059027;28;46446;-67
2022/08/11 10:47:33;;;;;;;7.13;3.43;;;24.70;10.20;;;;;;5056892;28;46556;-68
2022/08/11 10:47:56;;;;;;;5.20;2.93;;;24.80;10.10;;;;;;5059145;28;46315;-67
2022/08/11 10:58:45;;;;;;;5.90;3.30;;;25.00;10.10;;;;;;5058143;28;46500;-68
2022/08/11 11:01:11;;;;;;;5.90;2.30;;;25.10;10.00;;;;;;5057202;28;46217;-69
2022/08/11 11:03:38;;;;;;;11.83;3.40;;;25.20;10.00;;;;;;5059389;28;46471;-68
2022/08/11 11:06:27;;;;;;;6.43;2.63;;;25.50;9.50;;;;;;5060535;28;46500;-70
2022/08/11 11:09:13;;;;;;;9.13;2.93;;;25.60;9.40;;;;;;5057342;28;46654;-69
2022/08/11 11:20:29;;;;;;;13.30;2.87;;;25.50;8.90;;;;;;5059059;28;46417;-66
2022/08/11 11:22:59;;;;;;;6.63;2.93;;;25.40;8.60;;;;;;5058209;28;46529;-68
2022/08/11 11:25:37;;;;;;;6.23;2.90;;;25.40;8.70;;;;;;5059209;28;46544;-69
2022/08/11 11:28:35;;;;;;;9.40;2.90;;;25.60;9.10;;;;;;5059094;28;46468;-70
2022/08/11 11:31:21;;;;;;;6.60;2.60;;;25.70;8.80;;;;;;5059916;28;46507;-69
2022/08/11 11:34:25;;;;;;;7.30;2.97;;;25.70;8.50;;;;;;5058669;28;45832;-69
2022/08/11 11:36:55;;;;;;;6.47;2.97;;;25.60;8.70;;;;;;5060344;28;46633;-68
2022/08/11 11:39:24;;;;;;;5.80;2.40;;;25.60;8.30;;;;;;5057452;28;46740;-69
2022/08/11 11:41:53;;;;;;;5.10;2.47;;;25.60;8.70;;;;;;5057061;28;45827;-68
2022/08/11 11:44:21;;;;;;;5.37;2.77;;;25.80;8.60;;;;;;5059499;28;46691;-68
2022/08/11 11:46:47;;;;;;;11.87;2.77;;;25.90;7.90;;;;;;5057536;28;46441;-69
2022/08/11 11:49:17;;;;;;;4.80;2.47;;;25.80;8.10;;;;;;5059282;28;48062;-69
2022/08/11 11:51:46;;;;;;;7.30;2.90;;;25.90;7.60;;;;;;5059942;28;46727;-69
2022/08/11 11:54:14;;;;;;;8.27;2.60;;;26.00;7.60;;;;;;5059287;28;46540;-69
2022/08/11 11:56:42;;;;;;;4.00;2.33;;;26.10;7.60;;;;;;5058026;28;45807;-68
2022/08/11 12:01:54;;;;;;;5.17;2.50;;;25.80;7.40;;;;;;5056794;28;46407;-69
2022/08/11 12:04:20;;;;;;;4.30;2.50;;;25.90;7.90;;;;;;5058070;28;46472;-69
2022/08/11 12:06:47;;;;;;;4.97;2.70;;;26.00;7.50;;;;;;5056947;28;46441;-67
2022/08/11 12:09:20;;;;;;;4.40;2.50;;;26.20;7.40;;;;;;5058556;28;46973;-67
2022/08/11 12:14:31;;;;;;;7.50;2.37;;;26.00;6.70;;;;;;5057242;28;46588;-71
2022/08/11 12:16:58;;;;;;;13.33;2.73;;;26.10;6.80;;;;;;5058221;28;46452;-69
2022/08/11 12:19:27;;;;;;;4.50;2.23;;;26.10;7.00;;;;;;5056786;28;49297;-68
2022/08/11 12:27:26;;;;;;;7.00;2.30;;;26.30;6.50;;;;;;5057277;28;46628;-70
2022/08/11 12:29:56;;;;;;;7.63;2.43;;;26.50;6.80;;;;;;5058326;28;47046;-71
2022/08/11 12:32:27;;;;;;;4.40;2.00;;;26.50;6.40;;;;;;5058832;28;46468;-70
2022/08/11 12:34:55;;;;;;;5.70;2.77;;;26.50;6.30;;;;;;5062830;28;45838;-69
2022/08/11 12:37:35;;;;;;;7.70;2.17;;;26.40;5.90;;;;;;5062192;28;46565;-71
2022/08/11 12:45:40;;;;;;;4.73;2.57;;;26.30;6.10;;;;;;5062917;28;46450;-69
2022/08/11 12:54:10;;;;;;;4.07;2.50;;;26.40;5.50;;;;;;5061928;28;46304;-71
2022/08/11 13:05:04;;;;;;;7.17;2.30;;;26.80;5.50;;;;;;5059597;28;46438;-67
2022/08/11 13:07:34;;;;;;;6.90;2.10;;;26.70;5.10;;;;;;5058278;28;46956;-69
2022/08/11 13:10:06;;;;;;;6.30;2.27;;;26.70;5.40;;;;;;5061620;28;45878;-68
2022/08/11 13:12:47;;;;;;;4.70;2.03;;;26.60;5.00;;;;;;5060706;28;46843;-68
2022/08/11 13:15:24;;;;;;;6.80;2.30;;;26.60;5.30;;;;;;5060960;28;46596;-68
2022/08/11 13:17:53;;;;;;;7.47;3.03;;;26.70;5.40;;;;;;5059766;28;46333;-69
2022/08/11 13:20:21;;;;;;;4.00;2.50;;;26.90;5.00;;;;;;5059138;28;46856;-70
2022/08/11 13:22:49;;;;;;;5.30;2.10;;;27.00;4.90;;;;;;5062160;28;46461;-68
2022/08/11 13:25:17;;;;;;;5.63;2.23;;;27.00;4.50;;;;;;5060547;28;46399;-69
2022/08/11 13:27:45;;;;;;;10.20;2.33;;;27.20;4.50;;;;;;5060557;28;46383;-71
2022/08/11 13:32:58;;;;;;;3.30;1.90;;;27.20;3.80;;;;;;5060359;28;45968;-68
2022/08/11 13:35:26;;;;;;;5.07;2.50;;;27.00;3.70;;;;;;5060455;28;46425;-69
2022/08/11 13:37:53;;;;;;;5.70;2.37;;;26.80;4.20;;;;;;5060243;28;46362;-69
2022/08/11 13:40:20;;;;;;;6.43;2.23;;;27.00;4.50;;;;;;5060915;28;46470;-70
2022/08/11 13:42:48;;;;;;;6.70;2.63;;;27.00;4.50;;;;;;5059220;28;47170;-70
2022/08/11 13:45:14;;;;;;;4.20;2.70;;;27.00;4.90;;;;;;5060616;28;46466;-70
2022/08/11 13:47:41;;;;;;;4.37;2.17;;;27.10;4.60;;;;;;5059661;28;45901;-69
2022/08/11 13:50:08;;;;;;;4.10;2.10;;;27.20;3.70;;;;;;5062382;28;46515;-69
2022/08/11 13:52:38;;;;;;;3.77;2.20;;;27.20;3.70;;;;;;5061239;28;46414;-70
2022/08/11 13:55:05;;;;;;;10.30;2.30;;;27.10;3.70;;;;;;5061776;28;46700;-68
2022/08/11 13:57:32;;;;;;;7.33;2.80;;;27.10;3.70;;;;;;5063212;28;46479;-70
2022/08/11 14:00:08;;;;;;;4.60;2.10;;;27.10;3.80;;;;;;5057178;28;46528;-69
2022/08/11 14:02:36;;;;;;;9.87;2.67;;;27.10;3.70;;;;;;5058152;28;47168;-69
2022/08/11 14:05:10;;;;;;;9.30;2.40;;;27.10;3.80;;;;;;5059469;28;46346;-69
2022/08/11 14:07:50;;;;;;;4.00;1.93;;;27.00;3.60;;;;;;5059082;28;46367;-68
2022/08/11 14:10:19;;;;;;;3.90;2.17;;;27.10;3.70;;;;;;5060601;28;46652;-69
2022/08/11 14:15:45;;;;;;;7.43;2.30;;;27.10;3.70;;;;;;5059553;28;46462;-68
2022/08/11 14:18:24;;;;;;;6.57;2.60;;;26.90;3.60;;;;;;5060033;28;46356;-68
2022/08/11 14:23:43;;;;;;;4.60;2.00;;;27.00;3.60;;;;;;5058188;28;46404;-70
2022/08/11 14:26:25;;;;;;;4.90;2.00;;;27.20;3.80;;;;;;5059985;28;46747;-69
2022/08/11 14:29:21;;;;;;;7.33;2.60;;;27.30;3.90;;;;;;5056249;28;46473;-69
2022/08/11 14:31:57;;;;;;;10.23;2.17;;;27.20;3.70;;;;;;5045390;28;46411;-67
2022/08/11 14:34:28;;;;;;;6.70;2.37;;;27.20;3.70;;;;;;5059374;28;46513;-68
2022/08/11 14:37:06;;;;;;;17.23;2.53;;;27.10;3.80;;;;;;5054556;28;46718;-69
2022/08/11 14:39:37;;;;;;;4.60;2.23;;;27.20;3.70;;;;;;5058074;28;46789;-69
2022/08/11 14:47:42;;;;;;;4.77;2.20;;;27.20;2.70;;;;;;5060478;28;46396;-73
2022/08/11 14:50:16;;;;;;;4.40;1.80;;;27.30;2.70;;;;;;5059435;28;46475;-70
2022/08/11 14:52:47;;;;;;;5.43;2.40;;;27.30;2.50;;;;;;5061501;28;46637;-69
2022/08/11 14:58:00;;;;;;;11.30;2.60;;;27.30;2.40;;;;;;5059393;28;46357;-70
2022/08/11 15:00:26;;;;;;;7.20;2.37;;;27.20;2.40;;;;;;5052976;28;46500;-70
2022/08/11 15:03:11;;;;;;;6.27;2.30;;;27.30;2.90;;;;;;5060715;28;46595;-70
2022/08/11 15:05:38;;;;;;;3.83;2.00;;;;;;;;;;5058546;28;46613;-69
2022/08/11 15:08:05;;;;;;;3.33;2.00;;;27.20;2.80;;;;;;5057788;28;46434;-67
2022/08/11 15:10:31;;;;;;;5.47;2.40;;;27.10;2.70;;;;;;5058688;28;46470;-69
2022/08/11 15:12:58;;;;;;;5.10;2.57;;;26.90;3.00;;;;;;5062373;28;46414;-66
2022/08/11 15:18:15;;;;;;;4.63;2.43;;;26.90;3.50;;;;;;5058898;28;46681;-67
2022/08/11 15:26:18;;;;;;;7.27;2.30;;;26.70;3.30;;;;;;5057533;28;46379;-69
2022/08/11 15:37:25;;;;;;;3.83;1.90;;;26.80;3.10;;;;;;5057577;28;48360;-68
2022/08/11 15:45:50;;;;;;;5.73;2.57;;;26.90;2.50;;;;;;5059611;28;46603;-67
2022/08/11 15:48:21;;;;;;;5.10;1.97;;;26.90;2.40;;;;;;5059577;28;46500;-67
2022/08/11 15:50:53;;;;;;;6.97;3.70;;;26.90;2.40;;;;;;5059347;28;46318;-68
2022/08/11 15:53:26;;;;;;;5.53;2.00;;;26.90;2.10;;;;;;5059660;28;46380;-67
2022/08/11 15:55:54;;;;;;;7.20;2.00;;;26.90;2.20;;;;;;5059483;28;46848;-67
2022/08/11 16:04:11;;;;;;;9.53;2.23;;;26.80;1.80;;;;;;5059095;28;46481;-67
2022/08/11 16:06:39;;;;;;;5.43;2.27;;;26.60;2.40;;;;;;5059023;28;46373;-72
2022/08/11 16:09:07;;;;;;;5.03;2.20;;;26.50;2.60;;;;;;5062044;28;47388;-67
2022/08/11 16:11:34;;;;;;;5.20;2.20;;;26.60;2.60;;;;;;5063747;28;46563;-68
2022/08/11 16:16:49;;;;;;;4.13;1.90;;;26.60;2.20;;;;;;5060799;28;46063;-66
2022/08/11 16:19:17;;;;;;;3.73;2.00;;;26.60;2.20;;;;;;5062695;28;46379;-67
2022/08/11 16:21:43;;;;;;;4.70;2.13;;;26.60;2.30;;;;;;5063043;28;46330;-67
2022/08/11 16:24:12;;;;;;;5.70;2.27;;;26.60;2.50;;;;;;5063550;28;46398;-66
2022/08/11 16:26:41;;;;;;;3.03;1.90;;;26.60;1.90;;;;;;5060774;28;46541;-67
2022/08/11 16:29:09;;;;;;;7.17;2.37;;;26.60;2.10;;;;;;5061751;28;46679;-66
2022/08/11 16:31:36;;;;;;;4.37;2.07;;;26.60;2.40;;;;;;5063695;28;46328;-69
2022/08/11 16:34:04;;;;;;;5.07;2.43;;;26.50;2.50;;;;;;5062938;28;45802;-67
2022/08/11 16:39:17;;;;;;;3.70;2.07;;;26.30;2.70;;;;;;5062978;28;46037;-67
2022/08/11 16:47:16;;;;;;;9.63;2.20;;;26.10;3.10;;;;;;5061604;28;46391;-67
2022/08/11 16:49:50;;;;;;;9.20;3.60;;;26.10;3.20;;;;;;5060671;28;47023;-67
2022/08/11 16:52:16;;;;;;;6.50;2.30;;;26.00;3.30;;;;;;5062852;28;46314;-66
2022/08/11 16:54:42;;;;;;;8.77;2.67;;;25.90;3.30;;;;;;5062815;28;46459;-68
2022/08/11 17:00:03;;;;;;;5.70;2.17;;;25.40;3.30;;;;;;5060305;28;46444;-68
2022/08/11 17:13:55;;;;;;;5.43;2.00;;;25.00;3.40;;;;;;5061550;28;46436;-65
2022/08/11 17:16:30;;;;;;;8.10;2.10;;;25.00;7.40;;;;;;5062390;28;46945;-66
2022/08/11 17:19:04;;;;;;;5.00;2.73;;;24.90;10.30;;;;;;5058449;28;46705;-66
2022/08/11 17:23:45;;;;;;;10.20;2.40;;;24.90;3.50;;;;;;5061406;28;47145;-67
2022/08/11 17:24:26;;;;;;;9.63;2.30;;;24.80;10.90;;;;;;5061095;28;46402;-66
2022/08/11 17:26:57;;;;;;;19.00;2.67;;;24.70;3.70;;;;;;5059828;28;46378;-66
2022/08/11 17:29:39;;;;;;;14.63;2.33;;;24.70;3.80;;;;;;5062546;28;46298;-67
2022/08/11 17:35:30;;;;;;;6.67;2.23;;;24.50;4.20;;;;;;5061699;28;46743;-66
2022/08/11 17:38:14;;;;;;;13.50;2.50;;;24.40;4.40;;;;;;5062067;28;46361;-66
2022/08/11 17:49:19;;;;;;;11.73;3.03;;;24.80;8.20;;;;;;5057292;28;46521;-67
2022/08/11 18:00:06;;;;;;;7.27;2.20;;;24.90;3.90;;;;;;5061735;28;46427;-67
2022/08/11 18:05:33;;;;;;;3.87;2.30;;;24.10;7.70;;;;;;5062336;28;46969;-66
